Time;durP1;ratioP1;P1;durP2;ratioP2;P2;SDS_P1;SDS_P2;PMS_P1;PMS_P2;Temp;Humidity;BMP_temperature;BMP_pressure;BME280_temperature;BME280_humidity;BME280_pressure;Samples;Min_cycle;Max_cycle;Signal;HPM_P1;HPM_P2
2022/08/29 00:01:44;;;;;;;5.97;2.83;;;;;;;;;;4973604;28;20387;-50
2022/08/29 00:04:13;;;;;;;5.77;3.07;;;;;;;;;;4973457;28;20480;-50
2022/08/29 00:06:39;;;;;;;3.87;2.70;;;;;;;;;;4973294;28;20417;-50
2022/08/29 00:09:05;;;;;;;4.60;2.50;;;;;;;;;;4973208;28;20412;-50
2022/08/29 00:11:31;;;;;;;5.50;2.83;;;;;;;;;;4973431;28;20758;-50
2022/08/29 00:13:57;;;;;;;7.93;2.90;;;;;;;;;;4971742;28;20429;-50
2022/08/29 00:16:24;;;;;;;4.20;2.37;;;;;;;;;;4972728;28;20453;-50
2022/08/29 00:18:49;;;;;;;3.60;2.50;;;;;;;;;;4973076;28;20871;-50
2022/08/29 00:21:16;;;;;;;3.93;2.60;;;;;;;;;;4973261;28;20376;-50
2022/08/29 00:23:44;;;;;;;3.67;3.20;;;;;;;;;;4973054;28;20444;-50
2022/08/29 00:26:10;;;;;;;4.20;2.60;;;;;;;;;;4973051;28;20896;-50
2022/08/29 00:28:36;;;;;;;2.57;2.33;;;;;;;;;;4973007;28;20404;-50
2022/08/29 00:31:02;;;;;;;7.33;2.70;;;;;;;;;;4973155;28;20759;-50
2022/08/29 00:33:28;;;;;;;4.37;2.90;;;;;;;;;;4973183;28;20425;-50
2022/08/29 00:35:54;;;;;;;5.03;2.93;;;;;;;;;;4972831;28;20994;-50
2022/08/29 00:38:20;;;;;;;4.27;2.97;;;;;;;;;;4973044;28;20428;-50
2022/08/29 00:40:51;;;;;;;4.50;3.13;;;;;;;;;;4973177;28;20407;-50
2022/08/29 00:43:18;;;;;;;6.67;3.60;;;;;;;;;;4973054;28;20416;-50
2022/08/29 00:46:02;;;;;;;4.07;3.30;;;;;;;;;;4971958;28;20455;-50
2022/08/29 00:48:28;;;;;;;3.57;3.27;;;;;;;;;;4976796;28;20404;-51
2022/08/29 00:50:56;;;;;;;3.47;2.90;;;;;;;;;;4976818;28;20413;-50
2022/08/29 00:53:27;;;;;;;4.80;2.90;;;;;;;;;;4976944;28;20401;-50
2022/08/29 00:55:53;;;;;;;5.70;3.50;;;;;;;;;;4976933;28;20421;-50
2022/08/29 00:58:25;;;;;;;6.40;4.00;;;;;;;;;;4976808;28;20423;-51
2022/08/29 01:00:52;;;;;;;4.23;3.93;;;;;;;;;;4976380;28;20380;-51
2022/08/29 01:03:18;;;;;;;8.57;4.03;;;;;;;;;;4976227;28;20444;-50
2022/08/29 01:05:45;;;;;;;4.80;3.43;;;;;;;;;;4975957;28;20945;-50
2022/08/29 01:08:11;;;;;;;6.97;3.57;;;;;;;;;;4975477;28;20483;-50
2022/08/29 01:13:25;;;;;;;10.43;4.13;;;;;;;;;;4976496;28;20399;-50
2022/08/29 01:15:51;;;;;;;5.67;3.07;;;;;;;;;;4975078;28;20525;-50
2022/08/29 01:18:18;;;;;;;6.00;3.33;;;;;;;;;;4976474;28;20440;-50
2022/08/29 01:21:02;;;;;;;7.03;3.97;;;;;;;;;;4976480;28;20413;-50
2022/08/29 01:23:39;;;;;;;5.90;3.60;;;;;;;;;;4976411;28;20763;-50
2022/08/29 01:26:06;;;;;;;5.23;3.60;;;;;;;;;;4976215;28;20433;-50
2022/08/29 01:28:33;;;;;;;6.10;3.77;;;;;;;;;;4976196;28;20375;-51
2022/08/29 01:31:13;;;;;;;5.40;3.70;;;;;;;;;;4976472;28;20771;-50
2022/08/29 01:33:39;;;;;;;11.23;3.47;;;;;;;;;;4976607;28;20376;-50
2022/08/29 01:36:06;;;;;;;7.53;5.20;;;;;;;;;;4975930;28;20451;-51
2022/08/29 01:38:33;;;;;;;7.30;4.20;;;;;;;;;;4975854;28;20764;-50
2022/08/29 01:40:59;;;;;;;3.90;3.60;;;;;;;;;;4976019;28;20401;-50
2022/08/29 01:43:26;;;;;;;10.37;4.40;;;;;;;;;;4975925;28;20371;-50
2022/08/29 01:45:52;;;;;;;4.77;3.53;;;;;;;;;;4973989;28;20476;-50
2022/08/29 01:48:19;;;;;;;5.20;3.70;;;;;;;;;;4976014;28;20407;-50
2022/08/29 01:50:45;;;;;;;14.40;3.97;;;;;;;;;;4975728;28;20390;-51
2022/08/29 01:53:11;;;;;;;7.30;4.10;;;;;;;;;;4975801;28;20429;-50
2022/08/29 01:55:38;;;;;;;4.30;3.90;;;;;;;;;;4975578;28;20887;-50
2022/08/29 01:58:05;;;;;;;10.80;3.70;;;;;;;;;;4975767;28;20455;-50
2022/08/29 02:00:31;;;;;;;7.33;4.17;;;;;;;;;;4975657;28;20413;-49
2022/08/29 02:02:59;;;;;;;4.90;3.43;;;;;;;;;;4975710;28;20461;-49
2022/08/29 02:05:26;;;;;;;8.00;3.70;;;;;;;;;;4975412;28;20967;-50
2022/08/29 02:07:52;;;;;;;6.57;3.83;;;;;;;;;;4975576;28;20458;-50
2022/08/29 02:10:18;;;;;;;7.90;3.70;;;;;;;;;;4975353;28;20759;-50
2022/08/29 02:12:44;;;;;;;6.80;3.47;;;;;;;;;;4975483;28;20501;-50
2022/08/29 02:15:10;;;;;;;4.57;3.50;;;;;;;;;;4975204;28;20872;-51
2022/08/29 02:17:37;;;;;;;7.10;3.77;;;;;;;;;;4974147;28;20444;-50
2022/08/29 02:20:06;;;;;;;7.47;3.33;;;;;;;;;;4975112;28;20404;-50
2022/08/29 02:22:32;;;;;;;9.57;3.80;;;;;;;;;;4975275;28;20467;-50
2022/08/29 02:24:58;;;;;;;9.47;3.77;;;;;;;;;;4975151;28;20533;-50
2022/08/29 02:27:24;;;;;;;6.23;4.20;;;;;;;;;;4975135;28;20525;-50
2022/08/29 02:29:51;;;;;;;8.30;3.93;;;;;;;;;;4975207;28;20458;-50
2022/08/29 02:32:17;;;;;;;4.27;3.67;;;;;;;;;;4975130;28;20378;-50
2022/08/29 02:34:44;;;;;;;6.00;4.37;;;;;;;;;;4975073;28;20380;-50
2022/08/29 02:37:10;;;;;;;9.80;4.60;;;;;;;;;;4974871;28;20444;-50
2022/08/29 02:39:36;;;;;;;8.63;4.67;;;;;;;;;;4974789;28;20748;-50
2022/08/29 02:42:02;;;;;;;9.43;4.53;;;;;;;;;;4974961;28;20386;-50
2022/08/29 02:44:28;;;;;;;7.90;4.13;;;;;;;;;;4973972;28;20954;-51
2022/08/29 02:46:55;;;;;;;5.20;4.30;;;;;;;;;;4974683;28;20399;-49
2022/08/29 02:49:21;;;;;;;7.57;4.40;;;;;;;;;;4974541;28;20457;-50
2022/08/29 02:51:47;;;;;;;6.13;4.47;;;;;;;;;;4975580;28;20398;-50
2022/08/29 02:54:13;;;;;;;8.47;3.73;;;;;;;;;;4974984;28;20425;-49
2022/08/29 02:56:39;;;;;;;7.33;4.60;;;;;;;;;;4974803;28;20418;-49
2022/08/29 02:59:07;;;;;;;5.60;4.80;;;;;;;;;;4974598;28;20413;-49
2022/08/29 03:01:33;;;;;;;9.27;5.10;;;;;;;;;;4975266;28;20456;-49
2022/08/29 03:04:01;;;;;;;5.73;4.30;;;;;;;;;;4974602;28;20548;-49
2022/08/29 03:06:27;;;;;;;11.80;5.07;;;;;;;;;;4974827;28;20432;-50
2022/08/29 03:08:53;;;;;;;11.10;5.47;;;;;;;;;;4973964;28;20404;-49
2022/08/29 03:11:19;;;;;;;10.00;5.93;;;;;;;;;;4974632;28;20463;-50
2022/08/29 03:13:45;;;;;;;18.23;8.07;;;;;;;;;;4974694;28;20486;-49
2022/08/29 03:16:11;;;;;;;13.97;8.47;;;;;;;;;;4973259;28;20456;-50
2022/08/29 03:18:37;;;;;;;21.67;9.57;;;;;;;;;;4974281;28;20415;-49
2022/08/29 03:21:03;;;;;;;16.20;8.03;;;;;;;;;;4974701;28;20444;-49
2022/08/29 03:23:29;;;;;;;15.90;8.00;;;;;;;;;;4974421;28;20910;-50
2022/08/29 03:25:55;;;;;;;17.13;8.50;;;;;;;;;;4974299;28;20438;-49
2022/08/29 03:28:21;;;;;;;14.97;8.13;;;;;;;;;;4974398;28;20399;-49
2022/08/29 03:30:47;;;;;;;18.90;10.80;;;;;;;;;;4974202;28;20425;-49
2022/08/29 03:33:13;;;;;;;18.87;8.90;;;;;;;;;;4974368;28;21029;-49
2022/08/29 03:35:39;;;;;;;16.60;9.70;;;;;;;;;;4974171;28;20396;-49
2022/08/29 03:38:05;;;;;;;13.83;9.07;;;;;;;;;;4973359;28;20968;-49
2022/08/29 03:40:31;;;;;;;15.47;9.40;;;;;;;;;;4974101;28;20415;-49
2022/08/29 03:42:57;;;;;;;15.60;9.23;;;;;;;;;;4974330;28;20890;-49
2022/08/29 03:45:24;;;;;;;15.93;8.77;;;;;;;;;;4972823;28;20465;-49
2022/08/29 03:47:51;;;;;;;11.27;8.03;;;;;;;;;;4974056;28;20384;-49
2022/08/29 03:50:18;;;;;;;9.57;6.47;;;;;;;;;;4973851;28;20774;-49
2022/08/29 03:52:45;;;;;;;14.50;5.43;;;;;;;;;;4974138;28;20896;-49
2022/08/29 03:55:11;;;;;;;6.43;4.97;;;;;;;;;;4973859;28;20452;-50
2022/08/29 03:57:37;;;;;;;8.00;4.77;;;;;;;;;;4973813;28;20925;-49
2022/08/29 04:00:10;;;;;;;8.17;4.37;;;;;;;;;;4973765;28;21155;-49
2022/08/29 04:02:36;;;;;;;16.43;5.33;;;;;;;;;;4974216;28;20419;-50
2022/08/29 04:05:08;;;;;;;7.97;4.17;;;;;;;;;;4973701;28;20466;-49
2022/08/29 04:07:58;;;;;;;6.20;4.60;;;;;;;;;;4973969;28;20420;-48
2022/08/29 04:10:25;;;;;;;7.70;5.30;;;;;;;;;;4967875;28;20425;-48
2022/08/29 04:12:51;;;;;;;5.40;4.33;;;;;;;;;;4973355;28;20493;-48
2022/08/29 04:15:18;;;;;;;9.07;4.93;;;;;;;;;;4971393;28;20971;-48
2022/08/29 04:17:43;;;;;;;8.43;4.33;;;;;;;;;;4973274;28;20822;-48
2022/08/29 04:20:10;;;;;;;6.80;4.43;;;;;;;;;;4972715;28;20377;-48
2022/08/29 04:22:38;;;;;;;6.47;4.60;;;;;;;;;;4972791;28;20421;-48
2022/08/29 04:25:08;;;;;;;5.77;5.00;;;;;;;;;;4973063;28;20457;-49
2022/08/29 04:27:35;;;;;;;6.47;4.60;;;;;;;;;;4973085;28;20423;-50
2022/08/29 04:30:02;;;;;;;9.87;4.40;;;;;;;;;;4973008;28;20377;-48
2022/08/29 04:32:28;;;;;;;8.83;5.07;;;;;;;;;;4973109;28;20901;-48
2022/08/29 04:34:57;;;;;;;5.43;4.10;;;;;;;;;;4973051;28;20405;-48
2022/08/29 04:37:23;;;;;;;8.63;4.60;;;;;;;;;;4972847;28;20451;-48
2022/08/29 04:39:50;;;;;;;10.30;4.90;;;;;;;;;;4972688;28;20463;-48
2022/08/29 04:42:17;;;;;;;8.07;4.73;;;;;;;;;;4973057;28;20851;-48
2022/08/29 04:44:43;;;;;;;7.43;4.60;;;;;;;;;;4972852;28;20456;-48
2022/08/29 04:47:09;;;;;;;10.27;4.40;;;;;;;;;;4971306;28;20429;-51
2022/08/29 04:49:35;;;;;;;12.23;4.70;;;;;;;;;;4972818;28;20397;-48
2022/08/29 04:52:01;;;;;;;8.00;4.73;;;;;;;;;;4973066;28;20376;-48
2022/08/29 04:54:27;;;;;;;16.73;5.27;;;;;;;;;;4972873;28;20463;-48
2022/08/29 04:56:53;;;;;;;10.70;5.93;;;;;;;;;;4972811;28;20516;-48
2022/08/29 04:59:19;;;;;;;15.20;6.20;;;;;;;;;;4972768;28;20406;-48
2022/08/29 05:01:45;;;;;;;17.03;5.70;;;;;;;;;;4972871;28;20410;-48
2022/08/29 05:04:12;;;;;;;14.53;5.50;;;;;;;;;;4972847;28;20597;-48
2022/08/29 05:06:38;;;;;;;13.30;6.13;;;;;;;;;;4972749;28;20842;-48
2022/08/29 05:09:04;;;;;;;10.50;5.50;;;;;;;;;;4972526;28;20817;-48
2022/08/29 05:11:31;;;;;;;16.23;5.33;;;;;;;;;;4972783;28;20402;-48
2022/08/29 05:13:58;;;;;;;9.20;5.17;;;;;;;;;;4971527;28;20460;-50
2022/08/29 05:16:24;;;;;;;15.93;6.13;;;;;;;;;;4970820;28;20457;-48
2022/08/29 05:18:51;;;;;;;14.07;7.70;;;;;;;;;;4972586;28;20429;-48
2022/08/29 05:21:25;;;;;;;12.97;5.83;;;;;;;;;;4972763;28;20401;-49
2022/08/29 05:23:51;;;;;;;19.67;7.60;;;;;;;;;;4972598;28;20415;-48
2022/08/29 05:26:17;;;;;;;16.63;6.27;;;;;;;;;;4972724;28;20433;-48
2022/08/29 05:28:45;;;;;;;10.30;4.60;;;;;;;;;;4972547;28;20920;-48
2022/08/29 05:31:13;;;;;;;12.60;5.20;;;;;;;;;;4972687;28;20823;-48
2022/08/29 05:33:39;;;;;;;13.50;5.37;;;;;;;;;;4975571;28;20460;-48
2022/08/29 05:36:05;;;;;;;9.43;4.40;;;;;;;;;;4975810;28;20449;-48
2022/08/29 05:38:31;;;;;;;8.60;4.37;;;;;;;;;;4976022;28;20792;-48
2022/08/29 05:40:57;;;;;;;7.30;5.00;;;;;;;;;;4976002;28;20458;-50
2022/08/29 05:43:24;;;;;;;9.93;4.17;;;;;;;;;;4976375;28;20765;-51
2022/08/29 05:45:49;;;;;;;6.97;4.60;;;;;;;;;;4974644;28;20998;-48
2022/08/29 05:48:17;;;;;;;8.07;4.50;;;;;;;;;;4975937;28;20407;-48
2022/08/29 05:50:43;;;;;;;18.37;5.70;;;;;;;;;;4975613;28;20777;-48
2022/08/29 05:53:10;;;;;;;10.20;4.40;;;;;;;;;;4975941;28;20434;-48
2022/08/29 05:55:40;;;;;;;8.43;4.60;;;;;;;;;;4975690;28;20379;-50
2022/08/29 05:58:06;;;;;;;6.90;5.20;;;;;;;;;;4974747;28;20499;-48
2022/08/29 06:00:32;;;;;;;9.97;4.57;;;;;;;;;;4975394;28;20453;-50
2022/08/29 06:02:58;;;;;;;9.37;5.23;;;;;;;;;;4975601;28;20409;-48
2022/08/29 06:05:24;;;;;;;9.10;5.40;;;;;;;;;;4975398;28;20467;-48
2022/08/29 06:07:50;;;;;;;9.13;6.00;;;;;;;;;;4975527;28;20417;-48
2022/08/29 06:10:16;;;;;;;13.20;6.43;;;;;;;;;;4975584;28;20430;-48
2022/08/29 06:12:42;;;;;;;15.40;5.57;;;;;;;;;;4975532;28;20379;-48
2022/08/29 06:15:08;;;;;;;11.93;5.63;;;;;;;;;;4975414;28;20787;-48
2022/08/29 06:17:36;;;;;;;8.37;5.00;;;;;;;;;;4974309;28;20415;-50
2022/08/29 06:20:03;;;;;;;8.60;5.10;;;;;;;;;;4975119;28;20788;-48
2022/08/29 06:22:29;;;;;;;10.60;4.83;;;;;;;;;;4975402;28;20383;-48
2022/08/29 06:24:55;;;;;;;11.23;6.20;;;;;;;;;;4975159;28;20464;-48
2022/08/29 06:27:21;;;;;;;7.77;5.00;;;;;;;;;;4975384;28;20421;-48
2022/08/29 06:29:47;;;;;;;7.70;5.10;;;;;;;;;;4974985;28;20775;-48
2022/08/29 06:32:13;;;;;;;8.13;5.20;;;;;;;;;;4975033;28;20429;-49
2022/08/29 06:34:39;;;;;;;8.10;5.03;;;;;;;;;;4975059;28;20413;-50
2022/08/29 06:37:05;;;;;;;8.27;5.30;;;;;;;;;;4974949;28;20486;-49
2022/08/29 06:39:31;;;;;;;10.97;5.03;;;;;;;;;;4974866;28;20462;-48
2022/08/29 06:41:57;;;;;;;9.30;5.00;;;;;;;;;;4975108;28;20752;-48
2022/08/29 06:44:23;;;;;;;13.07;4.70;;;;;;;;;;4974042;28;20449;-48
2022/08/29 06:46:49;;;;;;;13.27;6.03;;;;;;;;;;4973664;28;20802;-48
2022/08/29 06:49:16;;;;;;;13.00;5.70;;;;;;;;;;4974045;28;21049;-48
2022/08/29 06:51:43;;;;;;;6.23;5.43;;;;;;;;;;4967128;28;20403;-49
2022/08/29 06:54:10;;;;;;;7.37;5.30;;;;;;;;;;4974653;28;20474;-48
2022/08/29 06:56:37;;;;;;;8.50;4.70;;;;;;;;;;4974662;28;20404;-49
2022/08/29 06:59:03;;;;;;;9.93;5.60;;;;;;;;;;4974441;28;20420;-48
2022/08/29 07:01:30;;;;;;;9.33;6.10;;;;;;;;;;4974402;28;20392;-48
2022/08/29 07:03:56;;;;;;;10.20;4.83;;;;;;;;;;4974377;28;20466;-48
2022/08/29 07:06:22;;;;;;;5.90;5.37;;;;;;;;;;4974245;28;20397;-48
2022/08/29 07:08:49;;;;;;;8.83;5.93;;;;;;;;;;4974218;28;20407;-48
2022/08/29 07:11:15;;;;;;;9.17;6.77;;;;;;;;;;4974455;28;20405;-50
2022/08/29 07:13:41;;;;;;;9.50;5.07;;;;;;;;;;4974369;28;20475;-48
2022/08/29 07:16:08;;;;;;;8.20;4.93;;;;;;;;;;4974143;28;20804;-48
2022/08/29 07:18:34;;;;;;;6.90;5.03;;;;;;;;;;4973061;28;20434;-52
2022/08/29 07:21:04;;;;;;;8.33;5.00;;;;;;;;;;4973331;28;20529;-49
2022/08/29 07:23:30;;;;;;;8.80;5.00;;;;;;;;;;4974286;28;20411;-48
2022/08/29 07:26:05;;;;;;;6.77;4.53;;;;;;;;;;4966860;28;20865;-48
2022/08/29 07:28:33;;;;;;;9.03;4.80;;;;;;;;;;4973875;28;20415;-48
2022/08/29 07:30:59;;;;;;;8.40;4.60;;;;;;;;;;4972528;28;20716;-49
2022/08/29 07:33:25;;;;;;;7.17;5.03;;;;;;;;;;4973718;28;20535;-49
2022/08/29 07:35:53;;;;;;;10.03;4.40;;;;;;;;;;4973620;28;20507;-49
2022/08/29 07:38:19;;;;;;;7.70;4.43;;;;;;;;;;4973122;28;20602;-48
2022/08/29 07:40:45;;;;;;;9.60;4.40;;;;;;;;;;4973769;28;20403;-48
2022/08/29 07:43:11;;;;;;;5.00;4.00;;;;;;;;;;4973613;28;20408;-48
2022/08/29 07:45:38;;;;;;;6.10;3.57;;;;;;;;;;4972487;28;20460;-48
2022/08/29 07:48:04;;;;;;;9.70;4.20;;;;;;;;;;4973797;28;20404;-49
2022/08/29 07:50:30;;;;;;;5.67;3.80;;;;;;;;;;4972574;28;20464;-49
2022/08/29 07:52:56;;;;;;;5.37;3.80;;;;;;;;;;4973666;28;20408;-51
2022/08/29 07:55:22;;;;;;;10.17;3.23;;;;;;;;;;4973403;28;20781;-48
2022/08/29 07:57:50;;;;;;;6.70;2.70;;;;;;;;;;4973527;28;20436;-48
2022/08/29 08:00:16;;;;;;;3.50;2.90;;;;;;;;;;4973405;28;20405;-49
2022/08/29 08:02:42;;;;;;;7.10;3.13;;;;;;;;;;4973546;28;20895;-49
2022/08/29 08:05:08;;;;;;;14.90;3.93;;;;;;;;;;4973372;28;20461;-49
2022/08/29 08:07:35;;;;;;;7.30;3.60;;;;;;;;;;4973473;28;20556;-49
2022/08/29 08:10:01;;;;;;;6.50;3.10;;;;;;;;;;4973231;28;20403;-49
2022/08/29 08:12:28;;;;;;;5.60;2.73;;;;;;;;;;4973358;28;20450;-49
2022/08/29 08:14:54;;;;;;;6.43;3.23;;;;;;;;;;4973237;28;20626;-50
2022/08/29 08:17:20;;;;;;;4.33;3.00;;;;;;;;;;4972173;28;20458;-49
2022/08/29 08:19:46;;;;;;;5.50;2.77;;;;;;;;;;4972986;28;20488;-49
2022/08/29 08:22:12;;;;;;;4.63;2.60;;;;;;;;;;4973269;28;20901;-50
2022/08/29 08:24:38;;;;;;;9.73;2.90;;;;;;;;;;4973022;28;20463;-51
2022/08/29 08:27:04;;;;;;;4.70;2.73;;;;;;;;;;4973118;28;20545;-49
2022/08/29 08:29:30;;;;;;;3.70;2.50;;;;;;;;;;4972889;28;20419;-48
2022/08/29 08:31:58;;;;;;;7.40;2.60;;;;;;;;;;4973173;28;20406;-49
2022/08/29 08:34:25;;;;;;;8.63;2.87;;;;;;;;;;4973195;28;20445;-49
2022/08/29 08:36:50;;;;;;;6.40;2.93;;;;;;;;;;4972860;28;20540;-49
2022/08/29 08:39:17;;;;;;;2.60;2.30;;;;;;;;;;4973139;28;20486;-49
2022/08/29 08:41:56;;;;;;;5.30;2.90;;;;;;;;;;4973107;28;20409;-49
2022/08/29 08:44:23;;;;;;;4.97;2.20;;;;;;;;;;4972961;28;20453;-49
2022/08/29 08:46:57;;;;;;;6.07;2.33;;;;;;;;;;4971917;28;20474;-49
2022/08/29 08:49:41;;;;;;;4.40;2.63;;;;;;;;;;4972804;28;20408;-49
2022/08/29 08:52:10;;;;;;;13.00;2.43;;;;;;;;;;4973707;28;20765;-50
2022/08/29 08:54:40;;;;;;;7.00;2.50;;;;;;;;;;4973024;28;20413;-50
2022/08/29 08:57:09;;;;;;;4.97;2.50;;;;;;;;;;4973310;28;20548;-51
2022/08/29 08:59:38;;;;;;;6.10;2.40;;;;;;;;;;4972721;28;20475;-50
2022/08/29 09:02:13;;;;;;;5.10;2.40;;;;;;;;;;4973416;28;20437;-50
2022/08/29 09:04:55;;;;;;;3.73;2.40;;;;;;;;;;4972691;28;20456;-49
2022/08/29 09:07:21;;;;;;;7.30;2.70;;;;;;;;;;4973931;28;20428;-50
2022/08/29 09:09:47;;;;;;;4.00;2.60;;;;;;;;;;4976455;28;20408;-50
2022/08/29 09:12:16;;;;;;;5.53;2.50;;;;;;;;;;4976685;28;20401;-50
2022/08/29 09:14:57;;;;;;;5.80;2.97;;;;;;;;;;4976523;28;20920;-50
2022/08/29 09:17:27;;;;;;;4.57;2.77;;;;;;;;;;4974376;28;20464;-52
2022/08/29 09:19:56;;;;;;;4.60;2.90;;;;;;;;;;4969488;28;20477;-50
2022/08/29 09:22:25;;;;;;;8.07;3.00;;;;;;;;;;4976497;28;20790;-51
2022/08/29 09:24:57;;;;;;;6.37;2.70;;;;;;;;;;4978192;28;20514;-51
2022/08/29 09:27:25;;;;;;;8.03;2.70;;;;;;;;;;4976279;28;20439;-51
2022/08/29 09:30:10;;;;;;;5.07;2.97;;;;;;;;;;4976329;28;20412;-49
2022/08/29 09:32:51;;;;;;;6.90;2.80;;;;;;;;;;4976813;28;20396;-49
2022/08/29 09:35:23;;;;;;;4.27;2.27;;;;;;;;;;4976267;28;20897;-49
2022/08/29 09:38:07;;;;;;;9.03;2.40;;;;;;;;;;4976999;28;20444;-49
2022/08/29 09:40:51;;;;;;;3.00;2.40;;;;;;;;;;4976581;28;20444;-50
2022/08/29 09:43:19;;;;;;;8.83;3.53;;;;;;;;;;4975829;28;20397;-50
2022/08/29 09:46:04;;;;;;;3.37;2.30;;;;;;;;;;4975244;28;20460;-50
2022/08/29 09:48:30;;;;;;;6.70;3.07;;;;;;;;;;4974555;28;20862;-50
2022/08/29 09:51:14;;;;;;;3.20;2.13;;;;;;;;;;4974506;28;20428;-51
2022/08/29 09:53:40;;;;;;;5.53;2.40;;;;;;;;;;4975053;28;20404;-50
2022/08/29 09:56:07;;;;;;;7.47;2.50;;;;;;;;;;4975472;28;20854;-51
2022/08/29 09:58:35;;;;;;;4.67;2.23;;;;;;;;;;4975497;28;20488;-51
2022/08/29 10:01:01;;;;;;;4.17;2.43;;;;;;;;;;4975743;28;20401;-51
2022/08/29 10:03:29;;;;;;;12.37;2.60;;;;;;;;;;4975689;28;20824;-51
2022/08/29 10:06:06;;;;;;;4.87;2.40;;;;;;;;;;4975479;28;20216;-51
2022/08/29 10:08:34;;;;;;;5.40;2.13;;;;;;;;;;4975534;28;20755;-50
2022/08/29 10:11:07;;;;;;;5.00;2.40;;;;;;;;;;4975563;28;20498;-51
2022/08/29 10:13:54;;;;;;;4.20;2.33;;;;;;;;;;4975585;28;20413;-51
2022/08/29 10:16:20;;;;;;;6.43;2.87;;;;;;;;;;4975679;28;20925;-50
2022/08/29 10:18:46;;;;;;;2.70;2.20;;;;;;;;;;4971715;28;20507;-51
2022/08/29 10:21:23;;;;;;;4.07;2.57;;;;;;;;;;4975442;28;20507;-51
2022/08/29 10:23:58;;;;;;;6.07;2.17;;;;;;;;;;4975381;28;20411;-51
2022/08/29 10:26:42;;;;;;;4.93;2.10;;;;;;;;;;4975173;28;20787;-51
2022/08/29 10:29:08;;;;;;;5.47;2.20;;;;;;;;;;4974157;28;20900;-51
2022/08/29 10:31:55;;;;;;;5.20;2.40;;;;;;;;;;4975214;28;20484;-51
2022/08/29 10:34:30;;;;;;;5.13;2.37;;;;;;;;;;4975466;28;20409;-50
2022/08/29 10:37:00;;;;;;;13.80;2.50;;;;;;;;;;4974784;28;20455;-51
2022/08/29 10:39:45;;;;;;;3.60;2.00;;;;;;;;;;4974837;28;20771;-51
2022/08/29 10:42:14;;;;;;;3.13;2.37;;;;;;;;;;4974987;28;20412;-51
2022/08/29 10:45:17;;;;;;;4.73;2.80;;;;;;;;;;4975073;28;20452;-51
2022/08/29 10:47:51;;;;;;;5.57;2.37;;;;;;;;;;4913981;29;20459;-51
2022/08/29 10:50:30;;;;;;;3.37;2.10;;;;;;;;;;4948875;29;20437;-51
2022/08/29 10:52:56;;;;;;;5.90;2.37;;;;;;;;;;4955836;29;20410;-51
2022/08/29 10:55:27;;;;;;;3.13;2.30;;;;;;;;;;4955362;28;20769;-51
2022/08/29 10:57:59;;;;;;;4.87;2.70;;;;;;;;;;4955399;29;20410;-51
2022/08/29 11:00:35;;;;;;;6.50;3.20;;;;;;;;;;4955244;28;20410;-51
2022/08/29 11:03:03;;;;;;;7.03;2.50;;;;;;;;;;4955192;29;20420;-51
2022/08/29 11:05:32;;;;;;;2.03;1.90;;;;;;;;;;4955008;28;20516;-51
2022/08/29 11:08:06;;;;;;;6.40;2.70;;;;;;;;;;4955182;28;20412;-51
2022/08/29 11:10:39;;;;;;;5.17;2.50;;;;;;;;;;4955055;29;20409;-50
2022/08/29 11:13:09;;;;;;;3.47;2.60;;;;;;;;;;4955147;28;20410;-51
2022/08/29 11:15:43;;;;;;;6.70;2.80;;;;;;;;;;4954743;28;20398;-51
2022/08/29 11:18:20;;;;;;;3.27;2.40;;;;;;;;;;4957323;28;20975;-51
2022/08/29 11:20:49;;;;;;;3.60;2.23;;;;;;;;;;4973334;28;20433;-50
2022/08/29 11:23:30;;;;;;;6.63;2.90;;;;;;;;;;4974206;28;20417;-50
2022/08/29 11:25:59;;;;;;;5.13;2.63;;;;;;;;;;4973926;28;20467;-52
2022/08/29 11:28:37;;;;;;;5.67;2.23;;;;;;;;;;4973992;28;20427;-51
2022/08/29 11:31:17;;;;;;;4.57;2.30;;;;;;;;;;4973618;28;20437;-50
2022/08/29 11:33:51;;;;;;;5.67;2.30;;;;;;;;;;4974129;28;20413;-51
2022/08/29 11:36:28;;;;;;;3.37;2.30;;;;;;;;;;4973657;28;20448;-51
2022/08/29 11:39:03;;;;;;;6.33;2.97;;;;;;;;;;4973787;28;20405;-50
2022/08/29 11:41:32;;;;;;;3.57;2.30;;;;;;;;;;4973963;28;20404;-51
2022/08/29 11:44:13;;;;;;;4.43;2.33;;;;;;;;;;4973750;28;20492;-51
2022/08/29 11:46:47;;;;;;;7.10;2.50;;;;;;;;;;4973624;28;20966;-51
2022/08/29 11:49:25;;;;;;;6.67;2.57;;;;;;;;;;4971924;28;20512;-51
2022/08/29 11:51:56;;;;;;;3.30;2.43;;;;;;;;;;4972701;28;20436;-50
2022/08/29 11:54:25;;;;;;;6.47;2.73;;;;;;;;;;4973819;28;20471;-50
2022/08/29 11:57:00;;;;;;;15.27;2.80;;;;;;;;;;4973230;28;20487;-50
2022/08/29 11:59:45;;;;;;;3.53;2.63;;;;;;;;;;4972470;28;20491;-50
2022/08/29 12:02:30;;;;;;;7.40;2.40;;;;;;;;;;4973601;28;20405;-50
2022/08/29 12:04:58;;;;;;;5.67;2.57;;;;;;;;;;4973374;28;20464;-50
2022/08/29 12:07:36;;;;;;;4.37;2.23;;;;;;;;;;4973441;28;20928;-51
2022/08/29 12:10:05;;;;;;;8.30;3.27;;;;;;;;;;4973395;28;20408;-50
2022/08/29 12:12:45;;;;;;;3.17;2.40;;;;;;;;;;4973436;28;20476;-50
2022/08/29 12:15:26;;;;;;;4.70;2.20;;;;;;;;;;4973371;28;20420;-51
2022/08/29 12:18:14;;;;;;;4.10;2.77;;;;;;;;;;4971002;28;20433;-51
2022/08/29 12:20:43;;;;;;;4.07;2.60;;;;;;;;;;4943042;28;20471;-51
2022/08/29 12:23:12;;;;;;;4.00;2.40;;;;;;;;;;4973299;28;20552;-51
2022/08/29 12:25:42;;;;;;;2.77;2.10;;;;;;;;;;4973006;28;20452;-52
2022/08/29 12:28:19;;;;;;;4.87;2.50;;;;;;;;;;4973171;28;20408;-50
2022/08/29 12:30:48;;;;;;;6.23;2.20;;;;;;;;;;4973110;28;20404;-50
2022/08/29 12:33:34;;;;;;;4.73;2.07;;;;;;;;;;4973154;28;20401;-51
2022/08/29 12:36:19;;;;;;;5.27;2.90;;;;;;;;;;4972940;28;20453;-51
2022/08/29 12:38:48;;;;;;;6.03;2.53;;;;;;;;;;4972867;28;20432;-52
2022/08/29 12:41:40;;;;;;;3.00;2.67;;;;;;;;;;4972610;28;20947;-51
2022/08/29 12:44:09;;;;;;;4.23;2.10;;;;;;;;;;4972942;28;20531;-51
2022/08/29 12:46:39;;;;;;;3.63;2.33;;;;;;;;;;4972940;28;20418;-51
2022/08/29 12:49:15;;;;;;;5.60;2.60;;;;;;;;;;4971740;28;20549;-51
2022/08/29 12:51:42;;;;;;;3.90;2.27;;;;;;;;;;4972908;28;20412;-51
2022/08/29 12:54:09;;;;;;;3.20;2.60;;;;;;;;;;4973036;28;20401;-50
2022/08/29 12:56:37;;;;;;;4.20;2.40;;;;;;;;;;4972002;28;20449;-50
2022/08/29 12:59:04;;;;;;;4.53;2.53;;;;;;;;;;4972624;28;20889;-51
2022/08/29 13:01:30;;;;;;;6.37;3.37;;;;;;;;;;4972830;28;20407;-51
2022/08/29 13:04:02;;;;;;;3.53;2.50;;;;;;;;;;4973309;28;20396;-50
2022/08/29 13:06:29;;;;;;;5.60;2.67;;;;;;;;;;4972720;28;20853;-50
2022/08/29 13:08:55;;;;;;;2.63;2.40;;;;;;;;;;4973052;28;20410;-50
2022/08/29 13:11:22;;;;;;;6.57;2.97;;;;;;;;;;4973065;28;20397;-50
2022/08/29 13:13:48;;;;;;;3.70;2.90;;;;;;;;;;4973003;28;20476;-51
2022/08/29 13:16:29;;;;;;;4.10;3.70;;;;;;;;;;4972968;28;20425;-51
2022/08/29 13:18:55;;;;;;;5.67;2.70;;;;;;;;;;4971052;28;20443;-51
2022/08/29 13:21:31;;;;;;;3.67;2.40;;;;;;;;;;4972846;28;20437;-51
2022/08/29 13:24:08;;;;;;;3.70;2.60;;;;;;;;;;4973104;28;20173;-51
2022/08/29 13:26:35;;;;;;;3.60;2.47;;;;;;;;;;4973091;28;20819;-50
2022/08/29 13:29:21;;;;;;;5.80;2.60;;;;;;;;;;4972709;28;20393;-50
2022/08/29 13:32:07;;;;;;;4.57;2.67;;;;;;;;;;4973167;28;20396;-50
2022/08/29 13:34:33;;;;;;;6.80;2.97;;;;;;;;;;4973058;28;20422;-50
2022/08/29 13:37:06;;;;;;;3.53;2.80;;;;;;;;;;4973219;28;20584;-50
2022/08/29 13:39:50;;;;;;;5.57;2.80;;;;;;;;;;4972814;28;20932;-51
2022/08/29 13:42:18;;;;;;;4.00;2.60;;;;;;;;;;4972989;28;20432;-49
2022/08/29 13:44:44;;;;;;;4.00;2.97;;;;;;;;;;4972884;28;20523;-50
2022/08/29 13:47:15;;;;;;;5.50;3.10;;;;;;;;;;4971618;28;20956;-50
2022/08/29 13:49:41;;;;;;;4.10;2.60;;;;;;;;;;4971661;28;20288;-51
2022/08/29 13:52:09;;;;;;;4.07;2.53;;;;;;;;;;4972684;28;20521;-49
2022/08/29 13:54:35;;;;;;;4.53;3.00;;;;;;;;;;4975611;28;20415;-50
2022/08/29 13:57:01;;;;;;;6.17;3.20;;;;;;;;;;4976252;28;20507;-50
2022/08/29 13:59:30;;;;;;;7.90;2.60;;;;;;;;;;4976063;28;20897;-50
2022/08/29 14:01:56;;;;;;;6.47;2.93;;;;;;;;;;4976437;28;20471;-50
2022/08/29 14:04:22;;;;;;;3.07;2.50;;;;;;;;;;4975657;28;20461;-50
2022/08/29 14:06:48;;;;;;;5.10;2.80;;;;;;;;;;4975582;28;20428;-50
2022/08/29 14:09:17;;;;;;;4.10;2.77;;;;;;;;;;4974166;28;20484;-51
2022/08/29 14:11:43;;;;;;;5.70;2.80;;;;;;;;;;4974852;28;20936;-50
2022/08/29 14:14:09;;;;;;;5.47;3.00;;;;;;;;;;4974328;28;20405;-50
2022/08/29 14:16:35;;;;;;;3.97;2.70;;;;;;;;;;4975776;28;20970;-50
2022/08/29 14:19:01;;;;;;;4.13;2.70;;;;;;;;;;4975131;28;20429;-51
2022/08/29 14:21:27;;;;;;;4.43;2.87;;;;;;;;;;4975732;28;20401;-51
2022/08/29 14:23:53;;;;;;;4.07;3.00;;;;;;;;;;4975805;28;20492;-51
2022/08/29 14:26:20;;;;;;;3.97;2.60;;;;;;;;;;4975374;28;21028;-50
2022/08/29 14:28:46;;;;;;;4.23;2.70;;;;;;;;;;4975417;28;20413;-49
2022/08/29 14:31:12;;;;;;;7.63;2.33;;;;;;;;;;4975778;28;20503;-50
2022/08/29 14:33:38;;;;;;;6.47;2.80;;;;;;;;;;4975743;28;20401;-49
2022/08/29 14:36:04;;;;;;;3.47;2.77;;;;;;;;;;4975533;28;20580;-49
2022/08/29 14:38:30;;;;;;;2.93;2.63;;;;;;;;;;4975358;28;20416;-49
2022/08/29 14:40:56;;;;;;;3.20;2.03;;;;;;;;;;4973415;28;20433;-50
2022/08/29 14:43:22;;;;;;;5.87;2.30;;;;;;;;;;4975207;28;20412;-50
2022/08/29 14:45:50;;;;;;;7.13;2.57;;;;;;;;;;4975057;28;20469;-49
2022/08/29 14:48:16;;;;;;;4.30;2.67;;;;;;;;;;4975348;28;20414;-50
2022/08/29 14:50:42;;;;;;;5.67;2.57;;;;;;;;;;4975263;28;20409;-51
2022/08/29 14:53:08;;;;;;;3.00;2.50;;;;;;;;;;4975916;28;20492;-51
2022/08/29 14:55:35;;;;;;;4.93;2.40;;;;;;;;;;4968073;28;20979;-52